createdAt,value
2018-09-16T00:04:26.419Z,101063.00
2018-09-16T00:09:29.450Z,101064.00
2018-09-16T00:14:32.508Z,101059.00
2018-09-16T00:19:35.605Z,101067.00
2018-09-16T00:24:38.645Z,101056.00
2018-09-16T00:29:41.707Z,101063.00
2018-09-16T00:34:44.753Z,101057.00
2018-09-16T00:39:47.787Z,101056.00
2018-09-16T00:44:50.836Z,101051.00
2018-09-16T00:49:53.804Z,101045.00
2018-09-16T00:54:56.839Z,101037.00
2018-09-16T00:59:59.832Z,101026.00
2018-09-16T01:05:04.159Z,101026.00
2018-09-16T01:10:07.269Z,101035.00
2018-09-16T01:15:10.454Z,101029.00
2018-09-16T01:20:13.460Z,101030.00
2018-09-16T01:25:16.951Z,101039.00
2018-09-16T01:30:20.042Z,101031.00
2018-09-16T01:35:23.121Z,101026.00
2018-09-16T01:40:26.144Z,101022.00
2018-09-16T01:45:29.187Z,101015.00
2018-09-16T01:50:32.244Z,101000.00
2018-09-16T01:55:35.270Z,100991.00
2018-09-16T02:00:38.309Z,100989.00
2018-09-16T02:05:46.893Z,100993.00
2018-09-16T02:10:49.967Z,100995.00
2018-09-16T02:15:53.062Z,100990.00
2018-09-16T02:20:56.067Z,100996.00
2018-09-16T02:25:59.115Z,100996.00
2018-09-16T02:31:04.346Z,100990.00
2018-09-16T02:36:07.490Z,100988.00
2018-09-16T02:41:10.468Z,100984.00
2018-09-16T02:46:13.474Z,100978.00
2018-09-16T02:51:16.491Z,100985.00
2018-09-16T02:56:19.565Z,100969.00
2018-09-16T03:01:22.600Z,100972.00
2018-09-16T03:06:30.619Z,100973.00
2018-09-16T03:11:33.751Z,100960.00
2018-09-16T03:16:36.695Z,100961.00
2018-09-16T03:21:39.713Z,100967.00
2018-09-16T03:26:42.668Z,100967.00
2018-09-16T03:31:45.762Z,100967.00
2018-09-16T03:36:48.787Z,100951.00
2018-09-16T03:41:51.817Z,100959.00
2018-09-16T03:46:54.885Z,100966.00
2018-09-16T03:51:57.887Z,100950.00
2018-09-16T03:57:02.162Z,100953.00
2018-09-16T04:02:06.304Z,100947.00
2018-09-16T04:07:09.316Z,100939.00
2018-09-16T04:12:12.351Z,100938.00
2018-09-16T04:17:15.375Z,100945.00
2018-09-16T04:22:18.426Z,100943.00
2018-09-16T04:27:21.481Z,100947.00
2018-09-16T04:32:24.559Z,100943.00
2018-09-16T04:37:27.509Z,100935.00
2018-09-16T04:42:30.589Z,100941.00
2018-09-16T04:47:34.172Z,100942.00
2018-09-16T04:52:37.259Z,100941.00
2018-09-16T04:57:40.309Z,100935.00
2018-09-16T05:02:43.475Z,100946.00
2018-09-16T05:07:46.480Z,100950.00
2018-09-16T05:12:49.462Z,100950.00
2018-09-16T05:17:52.547Z,100959.00
2018-09-16T05:22:55.717Z,100948.00
2018-09-16T05:27:58.712Z,100948.00
2018-09-16T05:33:04.396Z,100938.00
2018-09-16T05:38:07.414Z,100955.00
2018-09-16T05:43:10.426Z,100960.00
2018-09-16T05:48:13.600Z,100959.00
2018-09-16T05:53:16.652Z,100961.00
2018-09-16T05:58:19.601Z,100956.00
2018-09-16T06:03:22.801Z,100968.00
2018-09-16T06:08:25.910Z,100977.00
2018-09-16T06:13:29.052Z,100973.00
2018-09-16T06:18:32.288Z,100958.00
2018-09-16T06:23:35.648Z,100966.00
2018-09-16T06:28:38.669Z,100962.00
2018-09-16T06:33:41.668Z,100978.00
2018-09-16T06:38:44.955Z,100976.00
2018-09-16T06:43:48.048Z,100961.00
2018-09-16T06:48:51.072Z,100967.00
2018-09-16T06:53:54.124Z,100969.00
2018-09-16T06:58:57.763Z,100968.00
2018-09-16T07:04:02.535Z,100971.00
2018-09-16T07:09:11.642Z,100971.00
2018-09-16T07:14:14.661Z,100976.00
2018-09-16T07:19:17.712Z,100982.00
2018-09-16T07:24:20.910Z,100980.00
2018-09-16T07:29:23.968Z,100976.00
2018-09-16T07:34:26.998Z,100991.00
2018-09-16T07:39:30.049Z,100998.00
2018-09-16T07:44:33.211Z,101006.00
2018-09-16T07:49:36.237Z,100999.00
2018-09-16T07:54:39.416Z,101005.00
2018-09-16T07:59:42.475Z,101015.00
2018-09-16T08:04:45.505Z,101012.00
2018-09-16T08:09:48.777Z,100998.00
2018-09-16T08:14:51.904Z,101000.00
2018-09-16T08:19:54.964Z,101009.00
2018-09-16T08:24:58.086Z,100999.00
2018-09-16T08:30:03.695Z,101011.00
2018-09-16T08:35:06.769Z,101005.00
2018-09-16T08:40:09.898Z,101016.00
2018-09-16T08:45:13.356Z,101006.00
2018-09-16T08:50:16.434Z,101017.00
2018-09-16T08:55:20.049Z,101027.00
2018-09-16T09:00:23.142Z,101015.00
2018-09-16T09:05:26.172Z,101011.00
2018-09-16T09:10:29.488Z,101017.00
2018-09-16T09:15:32.636Z,101000.00
2018-09-16T09:20:35.643Z,101019.00
2018-09-16T09:25:38.641Z,100990.00
2018-09-16T09:30:41.669Z,100989.00
2018-09-16T09:35:44.929Z,100983.00
2018-09-16T09:40:47.983Z,100972.00
2018-09-16T09:45:51.010Z,100966.00
2018-09-16T09:50:54.238Z,100965.00
2018-09-16T09:55:57.673Z,100968.00
2018-09-16T10:01:02.640Z,100961.00
2018-09-16T10:06:05.820Z,100955.00
2018-09-16T10:11:08.838Z,100941.00
2018-09-16T10:16:11.891Z,100941.00
2018-09-16T10:21:14.987Z,100947.00
2018-09-16T10:26:18.151Z,100926.00
2018-09-16T10:31:21.352Z,100930.00
2018-09-16T10:36:24.409Z,100929.00
2018-09-16T10:41:27.419Z,100924.00
2018-09-16T10:46:30.496Z,100903.00
2018-09-16T10:51:33.570Z,100902.00
2018-09-16T10:56:36.647Z,100903.00
2018-09-16T11:01:39.644Z,100893.00
2018-09-16T11:06:42.663Z,100893.00
2018-09-16T11:11:45.787Z,100882.00
2018-09-16T11:16:48.852Z,100885.00
2018-09-16T11:21:51.876Z,100885.00
2018-09-16T11:26:54.972Z,100886.00
2018-09-16T11:31:58.054Z,100895.00
2018-09-16T11:37:01.653Z,100882.00
2018-09-16T11:42:04.887Z,100873.00
2018-09-16T11:47:08.016Z,100867.00
2018-09-16T11:52:11.077Z,100864.00
2018-09-16T11:57:14.123Z,100853.00
2018-09-16T12:02:17.384Z,100853.00
2018-09-16T12:07:20.405Z,100838.00
2018-09-16T12:17:32.888Z,100836.00
2018-09-16T12:22:35.974Z,100829.00
2018-09-16T12:27:39.060Z,100825.00
2018-09-16T12:32:42.116Z,100823.00
2018-09-16T12:37:45.175Z,100815.00
2018-09-16T12:42:48.399Z,100811.00
2018-09-16T12:47:51.571Z,100818.00
2018-09-16T12:52:54.630Z,100806.00
2018-09-16T12:57:58.139Z,100795.00
2018-09-16T13:03:03.224Z,100795.00
2018-09-16T13:08:06.342Z,100791.00
2018-09-16T13:13:09.471Z,100785.00
2018-09-16T13:18:12.513Z,100774.00
2018-09-16T13:23:15.750Z,100769.00
2018-09-16T13:28:19.360Z,100767.00
2018-09-16T13:33:22.492Z,100762.00
2018-09-16T13:38:25.660Z,100743.00
2018-09-16T13:43:28.868Z,100734.00
2018-09-16T13:48:32.277Z,100720.00
2018-09-16T13:53:35.441Z,100721.00
2018-09-16T13:58:38.485Z,100705.00
2018-09-16T14:03:41.552Z,100709.00
2018-09-16T14:08:44.854Z,100711.00
2018-09-16T14:13:47.896Z,100711.00
2018-09-16T14:18:51.127Z,100695.00
2018-09-16T14:23:54.238Z,100692.00
2018-09-16T14:28:57.623Z,100676.00
2018-09-16T14:34:01.256Z,100677.00
2018-09-16T14:39:06.365Z,100681.00
2018-09-16T14:44:09.552Z,100683.00
2018-09-16T14:49:12.758Z,100691.00
2018-09-16T14:54:15.865Z,100690.00
2018-09-16T14:59:19.088Z,100678.00
2018-09-16T15:04:22.150Z,100680.00
2018-09-16T15:09:25.269Z,100678.00
2018-09-16T15:14:28.312Z,100665.00
2018-09-16T15:19:31.459Z,100665.00
2018-09-16T15:24:34.626Z,100675.00
2018-09-16T15:29:37.889Z,100652.00
2018-09-16T15:34:40.929Z,100654.00
2018-09-16T15:39:44.219Z,100649.00
2018-09-16T15:44:47.330Z,100654.00
2018-09-16T15:49:50.621Z,100654.00
2018-09-16T15:54:54.018Z,100650.00
2018-09-16T15:59:57.401Z,100642.00
2018-09-16T16:05:02.832Z,100645.00
2018-09-16T16:10:06.597Z,100642.00
2018-09-16T16:15:09.947Z,100642.00
2018-09-16T16:20:13.330Z,100632.00
2018-09-16T16:25:16.557Z,100636.00
2018-09-16T16:30:19.676Z,100631.00
2018-09-16T16:35:22.732Z,100638.00
2018-09-16T16:40:25.825Z,100633.00
2018-09-16T16:45:28.890Z,100628.00
2018-09-16T16:50:32.192Z,100629.00
2018-09-16T16:55:35.496Z,100635.00
2018-09-16T17:00:38.636Z,100628.00
2018-09-16T17:05:41.704Z,100630.00
2018-09-16T17:10:45.072Z,100630.00
2018-09-16T17:15:48.330Z,100638.00
2018-09-16T17:20:51.413Z,100619.00
2018-09-16T17:25:54.627Z,100611.00
2018-09-16T17:30:57.840Z,100615.00
2018-09-16T17:36:03.273Z,100613.00
2018-09-16T17:41:06.482Z,100605.00
2018-09-16T17:46:09.626Z,100596.00
2018-09-16T17:51:14.013Z,100596.00
2018-09-16T17:56:17.261Z,100601.00
2018-09-16T18:01:21.679Z,100599.00
2018-09-16T18:06:24.879Z,100592.00
2018-09-16T18:11:27.935Z,100603.00
2018-09-16T18:16:31.245Z,100609.00
2018-09-16T18:21:34.446Z,100604.00
2018-09-16T18:26:37.702Z,100610.00
2018-09-16T18:31:40.992Z,100604.00
2018-09-16T18:36:44.436Z,100616.00
2018-09-16T18:41:47.835Z,100620.00
2018-09-16T18:46:51.288Z,100619.00
2018-09-16T18:51:54.519Z,100623.00
2018-09-16T18:56:57.792Z,100619.00
2018-09-16T19:02:03.783Z,100621.00
2018-09-16T19:07:06.905Z,100629.00
2018-09-16T19:12:10.105Z,100623.00
2018-09-16T19:17:13.335Z,100628.00
2018-09-16T19:22:16.709Z,100625.00
2018-09-16T19:27:20.008Z,100628.00
2018-09-16T19:32:23.397Z,100617.00
2018-09-16T19:37:26.954Z,100624.00
2018-09-16T19:42:30.522Z,100621.00
2018-09-16T19:47:33.994Z,100624.00
2018-09-16T19:52:37.413Z,100620.00
2018-09-16T19:57:40.777Z,100619.00
2018-09-16T20:02:43.944Z,100616.00
2018-09-16T20:07:47.197Z,100611.00
2018-09-16T20:12:50.794Z,100605.00
2018-09-16T20:17:54.086Z,100598.00
2018-09-16T20:22:57.303Z,100605.00
2018-09-16T20:28:02.116Z,100605.00
2018-09-16T20:33:05.605Z,100604.00
2018-09-16T20:38:08.964Z,100605.00
2018-09-16T20:43:12.132Z,100601.00
2018-09-16T20:48:16.306Z,100602.00
2018-09-16T20:53:19.766Z,100604.00
2018-09-16T20:58:23.185Z,100600.00
2018-09-16T21:03:26.415Z,100599.00
2018-09-16T21:08:29.904Z,100602.00
2018-09-16T21:13:33.262Z,100596.00
2018-09-16T21:18:36.562Z,100596.00
2018-09-16T21:23:39.939Z,100591.00
2018-09-16T21:28:43.236Z,100596.00
2018-09-16T21:33:46.849Z,100589.00
2018-09-16T21:38:50.050Z,100590.00
2018-09-16T21:49:04.840Z,100576.00
2018-09-16T21:54:08.165Z,100573.00
2018-09-16T21:59:11.322Z,100567.00
2018-09-16T22:04:14.558Z,100575.00
2018-09-16T22:09:17.784Z,100574.00
2018-09-16T22:14:21.726Z,100571.00
2018-09-16T22:19:25.137Z,100564.00
2018-09-16T22:24:28.336Z,100568.00
2018-09-16T22:29:31.544Z,100575.00
2018-09-16T22:34:34.661Z,100574.00
2018-09-16T22:39:37.739Z,100576.00
2018-09-16T22:44:40.804Z,100577.00
2018-09-16T22:49:43.893Z,100574.00
2018-09-16T22:54:47.246Z,100572.00
2018-09-16T22:59:50.493Z,100572.00
2018-09-16T23:04:53.604Z,100573.00
2018-09-16T23:09:56.718Z,100576.00
2018-09-16T23:14:59.853Z,100583.00
2018-09-16T23:20:03.987Z,100582.00
2018-09-16T23:25:07.037Z,100567.00
2018-09-16T23:30:10.179Z,100567.00
2018-09-16T23:35:13.179Z,100578.00
2018-09-16T23:40:16.409Z,100569.00
2018-09-16T23:45:19.490Z,100572.00
2018-09-16T23:50:22.961Z,100573.00
2018-09-16T23:55:26.160Z,100574.00
